sensor_id;sensor_type;location;lat;lon;timestamp;P1;durP1;ratioP1;P2;durP2;ratioP2
7330;SDS011;3706;49.198;7.064;2023-07-30T00:02:15;2.87;;;2.00;;
7330;SDS011;3706;49.198;7.064;2023-07-30T00:04:42;4.17;;;2.00;;
7330;SDS011;3706;49.198;7.064;2023-07-30T00:07:09;2.80;;;2.10;;
7330;SDS011;3706;49.198;7.064;2023-07-30T00:09:36;2.50;;;2.00;;
7330;SDS011;3706;49.198;7.064;2023-07-30T00:12:04;4.80;;;2.33;;
7330;SDS011;3706;49.198;7.064;2023-07-30T00:14:33;4.80;;;2.30;;
7330;SDS011;3706;49.198;7.064;2023-07-30T00:17:00;3.93;;;2.03;;
7330;SDS011;3706;49.198;7.064;2023-07-30T00:19:27;3.57;;;2.03;;
7330;SDS011;3706;49.198;7.064;2023-07-30T00:21:54;2.80;;;2.03;;
7330;SDS011;3706;49.198;7.064;2023-07-30T00:24:21;2.87;;;2.17;;
7330;SDS011;3706;49.198;7.064;2023-07-30T00:26:48;4.30;;;2.53;;
7330;SDS011;3706;49.198;7.064;2023-07-30T00:29:15;3.40;;;2.43;;
7330;SDS011;3706;49.198;7.064;2023-07-30T00:31:44;5.70;;;2.90;;
7330;SDS011;3706;49.198;7.064;2023-07-30T00:34:11;4.00;;;2.30;;
7330;SDS011;3706;49.198;7.064;2023-07-30T00:36:38;4.67;;;2.43;;
7330;SDS011;3706;49.198;7.064;2023-07-30T00:39:05;3.43;;;2.20;;
7330;SDS011;3706;49.198;7.064;2023-07-30T00:41:32;4.90;;;2.60;;
7330;SDS011;3706;49.198;7.064;2023-07-30T00:43:59;4.57;;;2.43;;
7330;SDS011;3706;49.198;7.064;2023-07-30T00:46:25;5.93;;;3.13;;
7330;SDS011;3706;49.198;7.064;2023-07-30T00:48:54;5.13;;;2.47;;
7330;SDS011;3706;49.198;7.064;2023-07-30T00:51:21;4.43;;;2.30;;
7330;SDS011;3706;49.198;7.064;2023-07-30T00:53:48;3.97;;;2.53;;
7330;SDS011;3706;49.198;7.064;2023-07-30T00:56:15;8.77;;;2.67;;
7330;SDS011;3706;49.198;7.064;2023-07-30T00:58:42;5.63;;;2.53;;
7330;SDS011;3706;49.198;7.064;2023-07-30T01:01:14;5.67;;;2.43;;
7330;SDS011;3706;49.198;7.064;2023-07-30T01:03:42;5.40;;;2.90;;
7330;SDS011;3706;49.198;7.064;2023-07-30T01:06:10;6.43;;;2.60;;
7330;SDS011;3706;49.198;7.064;2023-07-30T01:08:37;11.90;;;2.47;;
7330;SDS011;3706;49.198;7.064;2023-07-30T01:11:04;3.00;;;2.47;;
7330;SDS011;3706;49.198;7.064;2023-07-30T01:13:32;6.63;;;2.30;;
7330;SDS011;3706;49.198;7.064;2023-07-30T01:16:00;3.77;;;2.40;;
7330;SDS011;3706;49.198;7.064;2023-07-30T01:18:28;4.77;;;3.10;;
7330;SDS011;3706;49.198;7.064;2023-07-30T01:20:58;3.93;;;2.13;;
7330;SDS011;3706;49.198;7.064;2023-07-30T01:23:26;5.50;;;2.93;;
7330;SDS011;3706;49.198;7.064;2023-07-30T01:25:56;3.47;;;2.40;;
7330;SDS011;3706;49.198;7.064;2023-07-30T01:28:27;11.90;;;3.03;;
7330;SDS011;3706;49.198;7.064;2023-07-30T01:30:55;3.83;;;2.83;;
7330;SDS011;3706;49.198;7.064;2023-07-30T01:33:25;2.83;;;2.40;;
7330;SDS011;3706;49.198;7.064;2023-07-30T01:35:52;4.23;;;2.60;;
7330;SDS011;3706;49.198;7.064;2023-07-30T01:38:23;5.20;;;2.90;;
7330;SDS011;3706;49.198;7.064;2023-07-30T01:40:51;3.53;;;2.70;;
7330;SDS011;3706;49.198;7.064;2023-07-30T01:43:19;5.37;;;3.27;;
7330;SDS011;3706;49.198;7.064;2023-07-30T01:45:45;6.37;;;3.17;;
7330;SDS011;3706;49.198;7.064;2023-07-30T01:48:12;4.40;;;3.00;;
7330;SDS011;3706;49.198;7.064;2023-07-30T01:50:39;4.57;;;2.80;;
7330;SDS011;3706;49.198;7.064;2023-07-30T01:53:06;3.37;;;2.47;;
7330;SDS011;3706;49.198;7.064;2023-07-30T01:55:34;4.90;;;3.20;;
7330;SDS011;3706;49.198;7.064;2023-07-30T01:58:01;4.20;;;2.80;;
7330;SDS011;3706;49.198;7.064;2023-07-30T02:00:28;8.47;;;2.90;;
7330;SDS011;3706;49.198;7.064;2023-07-30T02:02:55;5.70;;;3.03;;
7330;SDS011;3706;49.198;7.064;2023-07-30T02:05:22;4.93;;;3.13;;
7330;SDS011;3706;49.198;7.064;2023-07-30T02:07:50;6.17;;;3.70;;
7330;SDS011;3706;49.198;7.064;2023-07-30T02:10:17;4.53;;;3.00;;
7330;SDS011;3706;49.198;7.064;2023-07-30T02:12:45;4.97;;;2.70;;
7330;SDS011;3706;49.198;7.064;2023-07-30T02:15:12;4.63;;;3.00;;
7330;SDS011;3706;49.198;7.064;2023-07-30T02:17:39;5.47;;;3.00;;
7330;SDS011;3706;49.198;7.064;2023-07-30T02:20:06;3.97;;;3.03;;
7330;SDS011;3706;49.198;7.064;2023-07-30T02:22:34;7.37;;;2.73;;
7330;SDS011;3706;49.198;7.064;2023-07-30T02:25:01;3.00;;;2.70;;
7330;SDS011;3706;49.198;7.064;2023-07-30T02:27:28;5.13;;;3.20;;
7330;SDS011;3706;49.198;7.064;2023-07-30T02:29:56;6.00;;;3.23;;
7330;SDS011;3706;49.198;7.064;2023-07-30T02:32:23;3.17;;;2.80;;
7330;SDS011;3706;49.198;7.064;2023-07-30T02:34:50;4.20;;;2.80;;
7330;SDS011;3706;49.198;7.064;2023-07-30T02:37:17;2.43;;;2.20;;
7330;SDS011;3706;49.198;7.064;2023-07-30T02:39:44;2.57;;;2.23;;
7330;SDS011;3706;49.198;7.064;2023-07-30T02:42:11;7.03;;;2.50;;
7330;SDS011;3706;49.198;7.064;2023-07-30T02:44:38;4.77;;;2.90;;
7330;SDS011;3706;49.198;7.064;2023-07-30T02:47:06;3.50;;;2.47;;
7330;SDS011;3706;49.198;7.064;2023-07-30T02:49:33;3.00;;;2.70;;
7330;SDS011;3706;49.198;7.064;2023-07-30T02:52:00;3.20;;;2.90;;
7330;SDS011;3706;49.198;7.064;2023-07-30T02:54:27;4.73;;;2.93;;
7330;SDS011;3706;49.198;7.064;2023-07-30T02:56:54;4.27;;;2.50;;
7330;SDS011;3706;49.198;7.064;2023-07-30T02:59:21;3.83;;;3.43;;
7330;SDS011;3706;49.198;7.064;2023-07-30T03:01:48;4.93;;;2.83;;
7330;SDS011;3706;49.198;7.064;2023-07-30T03:04:16;4.17;;;3.40;;
7330;SDS011;3706;49.198;7.064;2023-07-30T03:06:43;7.53;;;3.40;;
7330;SDS011;3706;49.198;7.064;2023-07-30T03:09:10;4.43;;;3.10;;
7330;SDS011;3706;49.198;7.064;2023-07-30T03:11:37;6.17;;;3.40;;
7330;SDS011;3706;49.198;7.064;2023-07-30T03:14:04;3.20;;;2.80;;
7330;SDS011;3706;49.198;7.064;2023-07-30T03:16:30;5.10;;;2.90;;
7330;SDS011;3706;49.198;7.064;2023-07-30T03:18:57;6.67;;;2.90;;
7330;SDS011;3706;49.198;7.064;2023-07-30T03:21:26;3.27;;;2.70;;
7330;SDS011;3706;49.198;7.064;2023-07-30T03:23:52;4.90;;;3.00;;
7330;SDS011;3706;49.198;7.064;2023-07-30T03:26:19;5.63;;;2.70;;
7330;SDS011;3706;49.198;7.064;2023-07-30T03:28:46;4.20;;;2.70;;
7330;SDS011;3706;49.198;7.064;2023-07-30T03:31:13;7.00;;;3.37;;
7330;SDS011;3706;49.198;7.064;2023-07-30T03:33:40;3.23;;;2.93;;
7330;SDS011;3706;49.198;7.064;2023-07-30T03:36:08;5.33;;;2.90;;
7330;SDS011;3706;49.198;7.064;2023-07-30T03:38:37;5.43;;;3.50;;
7330;SDS011;3706;49.198;7.064;2023-07-30T03:41:04;7.47;;;3.93;;
7330;SDS011;3706;49.198;7.064;2023-07-30T03:43:31;4.73;;;3.77;;
7330;SDS011;3706;49.198;7.064;2023-07-30T03:45:58;7.67;;;3.80;;
7330;SDS011;3706;49.198;7.064;2023-07-30T03:48:25;7.60;;;3.77;;
7330;SDS011;3706;49.198;7.064;2023-07-30T03:50:52;6.17;;;3.57;;
7330;SDS011;3706;49.198;7.064;2023-07-30T03:53:20;7.57;;;3.70;;
7330;SDS011;3706;49.198;7.064;2023-07-30T03:55:48;7.03;;;3.93;;
7330;SDS011;3706;49.198;7.064;2023-07-30T03:58:15;6.63;;;3.73;;
7330;SDS011;3706;49.198;7.064;2023-07-30T04:00:42;7.57;;;3.90;;
7330;SDS011;3706;49.198;7.064;2023-07-30T04:03:09;3.67;;;3.37;;
7330;SDS011;3706;49.198;7.064;2023-07-30T04:05:36;6.27;;;3.77;;
7330;SDS011;3706;49.198;7.064;2023-07-30T04:08:03;5.83;;;3.80;;
7330;SDS011;3706;49.198;7.064;2023-07-30T04:10:30;6.00;;;3.47;;
7330;SDS011;3706;49.198;7.064;2023-07-30T04:12:58;4.53;;;3.47;;
7330;SDS011;3706;49.198;7.064;2023-07-30T04:15:25;4.87;;;3.30;;
7330;SDS011;3706;49.198;7.064;2023-07-30T04:17:52;4.00;;;3.47;;
7330;SDS011;3706;49.198;7.064;2023-07-30T04:20:19;4.20;;;3.80;;
7330;SDS011;3706;49.198;7.064;2023-07-30T04:22:46;4.33;;;3.93;;
7330;SDS011;3706;49.198;7.064;2023-07-30T04:25:13;4.47;;;3.00;;
7330;SDS011;3706;49.198;7.064;2023-07-30T04:27:40;4.23;;;3.60;;
7330;SDS011;3706;49.198;7.064;2023-07-30T04:30:09;3.87;;;2.23;;
7330;SDS011;3706;49.198;7.064;2023-07-30T04:32:36;5.33;;;3.33;;
7330;SDS011;3706;49.198;7.064;2023-07-30T04:35:03;4.50;;;3.13;;
7330;SDS011;3706;49.198;7.064;2023-07-30T04:37:31;5.47;;;3.00;;
7330;SDS011;3706;49.198;7.064;2023-07-30T04:39:57;4.00;;;3.30;;
7330;SDS011;3706;49.198;7.064;2023-07-30T04:42:24;5.80;;;3.70;;
7330;SDS011;3706;49.198;7.064;2023-07-30T04:44:51;2.30;;;2.10;;
7330;SDS011;3706;49.198;7.064;2023-07-30T04:47:19;8.47;;;3.63;;
7330;SDS011;3706;49.198;7.064;2023-07-30T04:49:46;7.03;;;3.63;;
7330;SDS011;3706;49.198;7.064;2023-07-30T04:52:13;6.03;;;3.80;;
7330;SDS011;3706;49.198;7.064;2023-07-30T04:54:40;3.37;;;2.83;;
7330;SDS011;3706;49.198;7.064;2023-07-30T04:57:07;3.67;;;3.30;;
7330;SDS011;3706;49.198;7.064;2023-07-30T04:59:34;4.23;;;3.60;;
7330;SDS011;3706;49.198;7.064;2023-07-30T05:02:01;5.27;;;3.07;;
7330;SDS011;3706;49.198;7.064;2023-07-30T05:04:29;4.10;;;3.20;;
7330;SDS011;3706;49.198;7.064;2023-07-30T05:06:56;4.73;;;3.10;;
7330;SDS011;3706;49.198;7.064;2023-07-30T05:09:23;3.20;;;2.43;;
7330;SDS011;3706;49.198;7.064;2023-07-30T05:11:50;3.23;;;2.60;;
7330;SDS011;3706;49.198;7.064;2023-07-30T05:14:17;4.47;;;2.70;;
7330;SDS011;3706;49.198;7.064;2023-07-30T05:16:44;3.67;;;3.17;;
7330;SDS011;3706;49.198;7.064;2023-07-30T05:19:11;4.07;;;2.67;;
7330;SDS011;3706;49.198;7.064;2023-07-30T05:21:39;3.63;;;3.07;;
7330;SDS011;3706;49.198;7.064;2023-07-30T05:24:07;5.23;;;2.80;;
7330;SDS011;3706;49.198;7.064;2023-07-30T05:26:34;7.13;;;2.40;;
7330;SDS011;3706;49.198;7.064;2023-07-30T05:29:01;2.90;;;2.37;;
7330;SDS011;3706;49.198;7.064;2023-07-30T05:31:28;2.43;;;2.23;;
7330;SDS011;3706;49.198;7.064;2023-07-30T05:33:55;3.03;;;2.10;;
7330;SDS011;3706;49.198;7.064;2023-07-30T05:36:22;2.50;;;2.30;;
7330;SDS011;3706;49.198;7.064;2023-07-30T05:38:50;2.47;;;2.27;;
7330;SDS011;3706;49.198;7.064;2023-07-30T05:41:17;3.50;;;2.20;;
7330;SDS011;3706;49.198;7.064;2023-07-30T05:43:46;3.13;;;2.20;;
7330;SDS011;3706;49.198;7.064;2023-07-30T05:46:13;5.17;;;2.70;;
7330;SDS011;3706;49.198;7.064;2023-07-30T05:48:40;4.20;;;2.30;;
7330;SDS011;3706;49.198;7.064;2023-07-30T05:51:07;2.47;;;2.00;;
7330;SDS011;3706;49.198;7.064;2023-07-30T05:53:34;5.10;;;2.37;;
7330;SDS011;3706;49.198;7.064;2023-07-30T05:56:03;4.57;;;1.90;;
7330;SDS011;3706;49.198;7.064;2023-07-30T05:58:30;2.50;;;2.03;;
7330;SDS011;3706;49.198;7.064;2023-07-30T06:00:57;4.33;;;2.00;;
7330;SDS011;3706;49.198;7.064;2023-07-30T06:03:24;4.57;;;2.17;;
7330;SDS011;3706;49.198;7.064;2023-07-30T06:05:51;2.97;;;2.33;;
7330;SDS011;3706;49.198;7.064;2023-07-30T06:08:17;2.33;;;1.97;;
7330;SDS011;3706;49.198;7.064;2023-07-30T06:10:44;3.53;;;2.00;;
7330;SDS011;3706;49.198;7.064;2023-07-30T06:13:13;3.47;;;2.20;;
7330;SDS011;3706;49.198;7.064;2023-07-30T06:15:40;3.30;;;2.33;;
7330;SDS011;3706;49.198;7.064;2023-07-30T06:18:07;2.70;;;2.20;;
7330;SDS011;3706;49.198;7.064;2023-07-30T06:20:34;3.70;;;2.00;;
7330;SDS011;3706;49.198;7.064;2023-07-30T06:23:01;2.57;;;1.90;;
7330;SDS011;3706;49.198;7.064;2023-07-30T06:25:28;3.00;;;1.97;;
7330;SDS011;3706;49.198;7.064;2023-07-30T06:27:56;6.23;;;2.23;;
7330;SDS011;3706;49.198;7.064;2023-07-30T06:30:25;7.20;;;1.97;;
7330;SDS011;3706;49.198;7.064;2023-07-30T06:32:52;2.33;;;1.70;;
7330;SDS011;3706;49.198;7.064;2023-07-30T06:35:19;3.37;;;2.03;;
7330;SDS011;3706;49.198;7.064;2023-07-30T06:37:46;4.47;;;1.80;;
7330;SDS011;3706;49.198;7.064;2023-07-30T06:40:13;3.60;;;1.50;;
7330;SDS011;3706;49.198;7.064;2023-07-30T06:42:39;1.80;;;1.60;;
7330;SDS011;3706;49.198;7.064;2023-07-30T06:45:07;2.83;;;2.07;;
7330;SDS011;3706;49.198;7.064;2023-07-30T06:47:36;6.67;;;1.90;;
7330;SDS011;3706;49.198;7.064;2023-07-30T06:50:03;2.63;;;1.80;;
7330;SDS011;3706;49.198;7.064;2023-07-30T06:52:33;3.23;;;2.20;;
7330;SDS011;3706;49.198;7.064;2023-07-30T06:55:00;6.00;;;2.03;;
7330;SDS011;3706;49.198;7.064;2023-07-30T06:57:27;3.50;;;2.10;;
7330;SDS011;3706;49.198;7.064;2023-07-30T06:59:54;4.20;;;1.97;;
7330;SDS011;3706;49.198;7.064;2023-07-30T07:02:21;6.20;;;1.93;;
7330;SDS011;3706;49.198;7.064;2023-07-30T07:04:50;4.90;;;2.13;;
7330;SDS011;3706;49.198;7.064;2023-07-30T07:07:16;3.33;;;2.10;;
7330;SDS011;3706;49.198;7.064;2023-07-30T07:09:43;3.00;;;2.10;;
7330;SDS011;3706;49.198;7.064;2023-07-30T07:12:10;4.37;;;2.00;;
7330;SDS011;3706;49.198;7.064;2023-07-30T07:14:37;6.13;;;2.20;;
7330;SDS011;3706;49.198;7.064;2023-07-30T07:17:05;3.50;;;1.90;;
7330;SDS011;3706;49.198;7.064;2023-07-30T07:19:32;3.07;;;2.00;;
7330;SDS011;3706;49.198;7.064;2023-07-30T07:22:03;2.27;;;1.90;;
7330;SDS011;3706;49.198;7.064;2023-07-30T07:24:30;2.33;;;1.87;;
7330;SDS011;3706;49.198;7.064;2023-07-30T07:26:57;3.17;;;2.20;;
7330;SDS011;3706;49.198;7.064;2023-07-30T07:29:24;3.93;;;2.00;;
7330;SDS011;3706;49.198;7.064;2023-07-30T07:31:51;3.63;;;1.80;;
7330;SDS011;3706;49.198;7.064;2023-07-30T07:34:18;3.43;;;1.73;;
7330;SDS011;3706;49.198;7.064;2023-07-30T07:36:45;3.33;;;2.10;;
7330;SDS011;3706;49.198;7.064;2023-07-30T07:39:13;9.87;;;2.10;;
7330;SDS011;3706;49.198;7.064;2023-07-30T07:41:40;1.63;;;1.43;;
7330;SDS011;3706;49.198;7.064;2023-07-30T07:44:07;1.80;;;1.57;;
7330;SDS011;3706;49.198;7.064;2023-07-30T07:46:34;2.23;;;1.53;;
7330;SDS011;3706;49.198;7.064;2023-07-30T07:49:01;2.50;;;1.30;;
7330;SDS011;3706;49.198;7.064;2023-07-30T07:51:28;2.43;;;1.70;;
7330;SDS011;3706;49.198;7.064;2023-07-30T07:53:55;3.77;;;1.70;;
7330;SDS011;3706;49.198;7.064;2023-07-30T07:56:23;7.13;;;1.77;;
7330;SDS011;3706;49.198;7.064;2023-07-30T07:58:50;3.57;;;1.60;;
7330;SDS011;3706;49.198;7.064;2023-07-30T08:01:17;1.43;;;1.30;;
7330;SDS011;3706;49.198;7.064;2023-07-30T08:03:44;4.10;;;1.70;;
7330;SDS011;3706;49.198;7.064;2023-07-30T08:06:11;2.57;;;1.67;;
7330;SDS011;3706;49.198;7.064;2023-07-30T08:08:38;2.37;;;1.23;;
7330;SDS011;3706;49.198;7.064;2023-07-30T08:11:05;2.73;;;1.27;;
7330;SDS011;3706;49.198;7.064;2023-07-30T08:13:34;1.57;;;1.10;;
7330;SDS011;3706;49.198;7.064;2023-07-30T08:16:02;1.47;;;1.27;;
7330;SDS011;3706;49.198;7.064;2023-07-30T08:18:29;3.23;;;1.57;;
7330;SDS011;3706;49.198;7.064;2023-07-30T08:20:56;4.20;;;1.30;;
7330;SDS011;3706;49.198;7.064;2023-07-30T08:23:23;1.30;;;1.17;;
7330;SDS011;3706;49.198;7.064;2023-07-30T08:25:49;3.40;;;1.10;;
7330;SDS011;3706;49.198;7.064;2023-07-30T08:28:16;2.07;;;1.03;;
7330;SDS011;3706;49.198;7.064;2023-07-30T08:30:45;1.87;;;1.30;;
7330;SDS011;3706;49.198;7.064;2023-07-30T08:33:12;2.07;;;1.13;;
7330;SDS011;3706;49.198;7.064;2023-07-30T08:35:39;4.07;;;1.50;;
7330;SDS011;3706;49.198;7.064;2023-07-30T08:38:06;2.97;;;1.33;;
7330;SDS011;3706;49.198;7.064;2023-07-30T08:40:32;2.43;;;1.30;;
7330;SDS011;3706;49.198;7.064;2023-07-30T08:43:00;3.93;;;1.43;;
7330;SDS011;3706;49.198;7.064;2023-07-30T08:45:29;2.13;;;1.10;;
7330;SDS011;3706;49.198;7.064;2023-07-30T08:47:58;1.80;;;1.00;;
7330;SDS011;3706;49.198;7.064;2023-07-30T08:50:25;3.10;;;1.30;;
7330;SDS011;3706;49.198;7.064;2023-07-30T08:52:52;1.52;;;1.00;;
7330;SDS011;3706;49.198;7.064;2023-07-30T08:55:21;1.80;;;1.17;;
7330;SDS011;3706;49.198;7.064;2023-07-30T08:57:49;2.57;;;1.47;;
7330;SDS011;3706;49.198;7.064;2023-07-30T09:00:17;3.70;;;1.43;;
7330;SDS011;3706;49.198;7.064;2023-07-30T09:02:47;2.47;;;1.37;;
7330;SDS011;3706;49.198;7.064;2023-07-30T09:05:17;2.80;;;1.50;;
7330;SDS011;3706;49.198;7.064;2023-07-30T09:07:45;4.67;;;1.90;;
7330;SDS011;3706;49.198;7.064;2023-07-30T09:10:12;4.93;;;1.83;;
7330;SDS011;3706;49.198;7.064;2023-07-30T09:12:40;3.43;;;1.57;;
7330;SDS011;3706;49.198;7.064;2023-07-30T09:15:07;3.58;;;1.80;;
7330;SDS011;3706;49.198;7.064;2023-07-30T09:17:34;3.70;;;1.70;;
7330;SDS011;3706;49.198;7.064;2023-07-30T09:20:02;2.93;;;1.70;;
7330;SDS011;3706;49.198;7.064;2023-07-30T09:22:31;4.50;;;1.73;;
7330;SDS011;3706;49.198;7.064;2023-07-30T09:25:01;4.00;;;1.50;;
7330;SDS011;3706;49.198;7.064;2023-07-30T09:27:29;4.35;;;1.42;;
7330;SDS011;3706;49.198;7.064;2023-07-30T09:29:57;5.18;;;1.88;;
7330;SDS011;3706;49.198;7.064;2023-07-30T09:32:26;3.03;;;1.40;;
7330;SDS011;3706;49.198;7.064;2023-07-30T09:34:54;6.43;;;1.55;;
7330;SDS011;3706;49.198;7.064;2023-07-30T09:37:21;3.77;;;1.80;;
7330;SDS011;3706;49.198;7.064;2023-07-30T09:39:49;3.88;;;1.70;;
7330;SDS011;3706;49.198;7.064;2023-07-30T09:42:16;4.93;;;1.43;;
7330;SDS011;3706;49.198;7.064;2023-07-30T09:44:44;2.33;;;1.23;;
7330;SDS011;3706;49.198;7.064;2023-07-30T09:47:14;5.57;;;1.50;;
7330;SDS011;3706;49.198;7.064;2023-07-30T09:49:41;4.07;;;2.00;;
7330;SDS011;3706;49.198;7.064;2023-07-30T09:52:08;4.83;;;1.80;;
7330;SDS011;3706;49.198;7.064;2023-07-30T09:54:36;5.30;;;2.00;;
7330;SDS011;3706;49.198;7.064;2023-07-30T09:57:06;5.83;;;1.87;;
7330;SDS011;3706;49.198;7.064;2023-07-30T09:59:33;3.37;;;1.40;;
7330;SDS011;3706;49.198;7.064;2023-07-30T10:02:00;4.23;;;1.87;;
7330;SDS011;3706;49.198;7.064;2023-07-30T10:04:27;3.10;;;1.63;;
7330;SDS011;3706;49.198;7.064;2023-07-30T10:06:58;5.33;;;1.80;;
7330;SDS011;3706;49.198;7.064;2023-07-30T10:09:28;3.30;;;1.70;;
7330;SDS011;3706;49.198;7.064;2023-07-30T10:12:00;2.47;;;1.50;;
7330;SDS011;3706;49.198;7.064;2023-07-30T10:14:31;4.67;;;1.40;;
7330;SDS011;3706;49.198;7.064;2023-07-30T10:16:59;3.07;;;1.60;;
7330;SDS011;3706;49.198;7.064;2023-07-30T10:19:26;4.17;;;1.90;;
7330;SDS011;3706;49.198;7.064;2023-07-30T10:21:57;4.50;;;1.93;;
7330;SDS011;3706;49.198;7.064;2023-07-30T10:24:25;4.73;;;1.83;;
7330;SDS011;3706;49.198;7.064;2023-07-30T10:26:53;3.67;;;1.90;;
7330;SDS011;3706;49.198;7.064;2023-07-30T10:29:23;5.80;;;1.77;;
7330;SDS011;3706;49.198;7.064;2023-07-30T10:31:53;4.93;;;1.70;;
7330;SDS011;3706;49.198;7.064;2023-07-30T10:34:21;3.47;;;1.77;;
7330;SDS011;3706;49.198;7.064;2023-07-30T10:36:51;3.27;;;1.77;;
7330;SDS011;3706;49.198;7.064;2023-07-30T10:39:21;3.17;;;1.77;;
7330;SDS011;3706;49.198;7.064;2023-07-30T10:41:53;8.20;;;2.07;;
7330;SDS011;3706;49.198;7.064;2023-07-30T10:44:22;3.80;;;1.67;;
7330;SDS011;3706;49.198;7.064;2023-07-30T10:46:50;4.50;;;1.70;;
7330;SDS011;3706;49.198;7.064;2023-07-30T10:49:19;5.27;;;1.93;;
7330;SDS011;3706;49.198;7.064;2023-07-30T10:51:46;5.40;;;1.93;;
7330;SDS011;3706;49.198;7.064;2023-07-30T10:54:13;3.87;;;1.80;;
7330;SDS011;3706;49.198;7.064;2023-07-30T10:56:41;3.07;;;1.80;;
7330;SDS011;3706;49.198;7.064;2023-07-30T10:59:11;4.00;;;1.80;;
7330;SDS011;3706;49.198;7.064;2023-07-30T11:01:40;4.20;;;1.80;;
7330;SDS011;3706;49.198;7.064;2023-07-30T11:04:13;3.03;;;1.80;;
7330;SDS011;3706;49.198;7.064;2023-07-30T11:06:44;3.00;;;1.63;;
7330;SDS011;3706;49.198;7.064;2023-07-30T11:09:17;3.13;;;1.73;;
7330;SDS011;3706;49.198;7.064;2023-07-30T11:11:45;2.83;;;1.57;;
7330;SDS011;3706;49.198;7.064;2023-07-30T11:14:14;5.10;;;1.83;;
7330;SDS011;3706;49.198;7.064;2023-07-30T11:16:47;3.28;;;1.85;;
7330;SDS011;3706;49.198;7.064;2023-07-30T11:19:17;3.30;;;1.63;;
7330;SDS011;3706;49.198;7.064;2023-07-30T11:21:44;5.50;;;2.00;;
7330;SDS011;3706;49.198;7.064;2023-07-30T11:24:11;6.07;;;1.92;;
7330;SDS011;3706;49.198;7.064;2023-07-30T11:26:39;3.33;;;1.90;;
7330;SDS011;3706;49.198;7.064;2023-07-30T11:29:13;3.13;;;1.83;;
7330;SDS011;3706;49.198;7.064;2023-07-30T11:31:41;3.33;;;1.67;;
7330;SDS011;3706;49.198;7.064;2023-07-30T11:34:09;2.07;;;1.33;;
7330;SDS011;3706;49.198;7.064;2023-07-30T11:36:37;5.47;;;1.77;;
7330;SDS011;3706;49.198;7.064;2023-07-30T11:39:06;2.80;;;1.60;;
7330;SDS011;3706;49.198;7.064;2023-07-30T11:41:33;5.33;;;2.57;;
7330;SDS011;3706;49.198;7.064;2023-07-30T11:44:01;5.70;;;1.97;;
7330;SDS011;3706;49.198;7.064;2023-07-30T11:46:28;2.00;;;1.60;;
7330;SDS011;3706;49.198;7.064;2023-07-30T11:49:10;5.67;;;1.67;;
7330;SDS011;3706;49.198;7.064;2023-07-30T11:51:40;2.20;;;1.63;;
7330;SDS011;3706;49.198;7.064;2023-07-30T11:54:07;3.13;;;1.70;;
7330;SDS011;3706;49.198;7.064;2023-07-30T11:56:44;5.37;;;1.83;;
7330;SDS011;3706;49.198;7.064;2023-07-30T11:59:11;3.87;;;1.70;;
7330;SDS011;3706;49.198;7.064;2023-07-30T12:01:38;2.87;;;1.70;;
7330;SDS011;3706;49.198;7.064;2023-07-30T12:04:08;3.70;;;2.00;;
7330;SDS011;3706;49.198;7.064;2023-07-30T12:06:39;3.80;;;1.73;;
7330;SDS011;3706;49.198;7.064;2023-07-30T12:09:11;2.77;;;1.60;;
7330;SDS011;3706;49.198;7.064;2023-07-30T12:11:45;3.27;;;1.83;;
7330;SDS011;3706;49.198;7.064;2023-07-30T12:14:13;3.20;;;1.60;;
7330;SDS011;3706;49.198;7.064;2023-07-30T12:16:40;6.70;;;2.00;;
7330;SDS011;3706;49.198;7.064;2023-07-30T12:19:07;4.37;;;1.70;;
7330;SDS011;3706;49.198;7.064;2023-07-30T12:21:35;4.87;;;1.80;;
7330;SDS011;3706;49.198;7.064;2023-07-30T12:24:03;3.60;;;1.90;;
7330;SDS011;3706;49.198;7.064;2023-07-30T12:26:30;4.67;;;1.90;;
7330;SDS011;3706;49.198;7.064;2023-07-30T12:28:57;4.30;;;1.90;;
7330;SDS011;3706;49.198;7.064;2023-07-30T12:31:24;1.93;;;1.40;;
7330;SDS011;3706;49.198;7.064;2023-07-30T12:33:51;2.37;;;1.50;;
7330;SDS011;3706;49.198;7.064;2023-07-30T12:36:18;1.57;;;1.40;;
7330;SDS011;3706;49.198;7.064;2023-07-30T12:38:45;3.50;;;1.77;;
7330;SDS011;3706;49.198;7.064;2023-07-30T12:41:13;3.97;;;1.90;;
7330;SDS011;3706;49.198;7.064;2023-07-30T12:43:40;3.23;;;1.77;;
7330;SDS011;3706;49.198;7.064;2023-07-30T12:46:07;3.60;;;1.70;;
7330;SDS011;3706;49.198;7.064;2023-07-30T12:48:34;8.57;;;2.13;;
7330;SDS011;3706;49.198;7.064;2023-07-30T12:51:01;3.50;;;1.43;;
7330;SDS011;3706;49.198;7.064;2023-07-30T12:53:28;6.17;;;1.63;;
7330;SDS011;3706;49.198;7.064;2023-07-30T12:55:55;2.70;;;1.57;;
7330;SDS011;3706;49.198;7.064;2023-07-30T12:58:23;2.63;;;1.60;;
7330;SDS011;3706;49.198;7.064;2023-07-30T13:00:50;4.50;;;1.70;;
7330;SDS011;3706;49.198;7.064;2023-07-30T13:03:17;3.13;;;1.97;;
7330;SDS011;3706;49.198;7.064;2023-07-30T13:05:44;4.03;;;1.93;;
7330;SDS011;3706;49.198;7.064;2023-07-30T13:08:11;3.20;;;1.73;;
7330;SDS011;3706;49.198;7.064;2023-07-30T13:10:38;3.93;;;1.43;;
7330;SDS011;3706;49.198;7.064;2023-07-30T13:13:05;2.50;;;1.70;;
7330;SDS011;3706;49.198;7.064;2023-07-30T13:15:33;3.93;;;1.83;;
7330;SDS011;3706;49.198;7.064;2023-07-30T13:18:00;2.73;;;1.63;;
7330;SDS011;3706;49.198;7.064;2023-07-30T13:20:27;4.30;;;1.70;;
7330;SDS011;3706;49.198;7.064;2023-07-30T13:22:54;4.43;;;1.70;;
7330;SDS011;3706;49.198;7.064;2023-07-30T13:25:20;3.93;;;2.00;;
7330;SDS011;3706;49.198;7.064;2023-07-30T13:27:47;2.50;;;1.53;;
7330;SDS011;3706;49.198;7.064;2023-07-30T13:30:14;4.10;;;1.50;;
7330;SDS011;3706;49.198;7.064;2023-07-30T13:32:43;4.43;;;1.73;;
7330;SDS011;3706;49.198;7.064;2023-07-30T13:35:09;4.07;;;1.90;;
7330;SDS011;3706;49.198;7.064;2023-07-30T13:37:36;5.70;;;1.80;;
7330;SDS011;3706;49.198;7.064;2023-07-30T13:40:04;3.40;;;1.73;;
7330;SDS011;3706;49.198;7.064;2023-07-30T13:42:31;3.70;;;1.70;;
7330;SDS011;3706;49.198;7.064;2023-07-30T13:44:58;3.23;;;1.50;;
7330;SDS011;3706;49.198;7.064;2023-07-30T13:47:25;3.80;;;2.87;;
7330;SDS011;3706;49.198;7.064;2023-07-30T13:49:54;4.43;;;1.67;;
7330;SDS011;3706;49.198;7.064;2023-07-30T13:52:21;2.40;;;1.50;;
7330;SDS011;3706;49.198;7.064;2023-07-30T13:54:48;5.80;;;3.87;;
7330;SDS011;3706;49.198;7.064;2023-07-30T13:57:21;3.60;;;2.10;;
7330;SDS011;3706;49.198;7.064;2023-07-30T13:59:49;9.43;;;2.27;;
7330;SDS011;3706;49.198;7.064;2023-07-30T14:02:16;8.07;;;2.20;;
7330;SDS011;3706;49.198;7.064;2023-07-30T14:04:43;4.47;;;1.80;;
7330;SDS011;3706;49.198;7.064;2023-07-30T14:07:11;5.57;;;2.00;;
7330;SDS011;3706;49.198;7.064;2023-07-30T14:09:38;3.43;;;1.70;;
7330;SDS011;3706;49.198;7.064;2023-07-30T14:12:07;5.33;;;1.90;;
7330;SDS011;3706;49.198;7.064;2023-07-30T14:14:34;3.87;;;1.83;;
7330;SDS011;3706;49.198;7.064;2023-07-30T14:17:01;6.30;;;2.07;;
7330;SDS011;3706;49.198;7.064;2023-07-30T14:19:31;3.60;;;1.67;;
7330;SDS011;3706;49.198;7.064;2023-07-30T14:21:59;4.70;;;1.53;;
7330;SDS011;3706;49.198;7.064;2023-07-30T14:24:27;3.70;;;1.70;;
7330;SDS011;3706;49.198;7.064;2023-07-30T14:26:54;3.10;;;1.57;;
7330;SDS011;3706;49.198;7.064;2023-07-30T14:29:21;4.47;;;1.80;;
7330;SDS011;3706;49.198;7.064;2023-07-30T14:31:48;4.03;;;1.73;;
7330;SDS011;3706;49.198;7.064;2023-07-30T14:34:16;5.37;;;1.90;;
7330;SDS011;3706;49.198;7.064;2023-07-30T14:36:42;3.43;;;1.60;;
7330;SDS011;3706;49.198;7.064;2023-07-30T14:39:09;3.53;;;1.70;;
7330;SDS011;3706;49.198;7.064;2023-07-30T14:41:38;4.93;;;2.03;;
7330;SDS011;3706;49.198;7.064;2023-07-30T14:44:05;4.50;;;1.90;;
7330;SDS011;3706;49.198;7.064;2023-07-30T14:46:32;3.90;;;1.90;;
7330;SDS011;3706;49.198;7.064;2023-07-30T14:48:59;6.07;;;2.37;;
7330;SDS011;3706;49.198;7.064;2023-07-30T14:51:26;3.43;;;1.70;;
7330;SDS011;3706;49.198;7.064;2023-07-30T14:53:53;4.37;;;1.80;;
7330;SDS011;3706;49.198;7.064;2023-07-30T14:56:20;4.43;;;1.97;;
7330;SDS011;3706;49.198;7.064;2023-07-30T14:58:48;4.07;;;1.70;;
7330;SDS011;3706;49.198;7.064;2023-07-30T15:01:15;4.10;;;1.73;;
7330;SDS011;3706;49.198;7.064;2023-07-30T15:03:42;3.33;;;1.60;;
7330;SDS011;3706;49.198;7.064;2023-07-30T15:06:09;4.50;;;1.77;;
7330;SDS011;3706;49.198;7.064;2023-07-30T15:08:36;3.90;;;1.90;;
7330;SDS011;3706;49.198;7.064;2023-07-30T15:11:03;4.33;;;1.73;;
7330;SDS011;3706;49.198;7.064;2023-07-30T15:13:30;5.80;;;2.07;;
7330;SDS011;3706;49.198;7.064;2023-07-30T15:15:58;4.80;;;1.83;;
7330;SDS011;3706;49.198;7.064;2023-07-30T15:18:25;4.50;;;1.60;;